ZSSS/SHA METAR and TAF weather

Enter ICAO airport designator
Station Type Date Time Source
ZSSS METAR 2021/04/13 23:30 UTC NOAA

ZSSS 132330Z 07003MPS 030V110 CAVOK 12/04 Q1023 NOSIG


Station Type Date Time Source
ZSSS Decoded METAR 2021/04/13 23:30 UTC NOAA

Shanghai / Hongqiao, China (ZSSS) 31-10N 121-26E 3M
Apr 13, 2021 - 07:30 PM EDT / 2021.04.13 2330 UTC
Wind: from the ENE (070 degrees) at 7 MPH (6 KT) (direction variable):0
Visibility: greater than 7 mile(s):0
Temperature: 53 F (12 C)
Dew Point: 39 F (4 C)
Relative Humidity: 57%
Pressure (altimeter): 30.21 in. Hg (1023 hPa)
ob: ZSSS 132330Z 07003MPS 030V110 CAVOK 12/04 Q1023 NOSIG
cycle: 23

Station Type Date Time Source
ZSSS TAF 2021/04/13 18:03 UTC NOAA

TAF ZSSS 131500Z 1318/1418 06004MPS 6000 BKN015 TX17/1405Z TN11/1320Z

Example: see airport list